Drift, Kentucky
Current Conditions -  °F | °C
As of 7:35 AM on Monday 20 Oct 2014 (Local Time) from KPBX Reporting Station
Clear Clear  
Wind Chill: 37°   Ceiling: Unl
Heat Index: 40°   Visibility: 10mi
Dew Point: 39°   Wind: 5mph
Humidity: 95%   Direction: 160°SSE
Pressure: 30.07"   Gusts: NA
Location:  37.48°N, 82.75°W
Report Text: KPBX 201135Z AUTO 16004KT 10SM CLR 05/04 A3007 RMK AO2 T00460038
Loading
Personal Weather Stations






























Interactive Weather Map
Tropical Storm Tracking
New forecast layout! Learn more

10-Day Weather Forecast

Advertisements
Track Severe Weather on mobile